Terminal Aerodrome Forecast
Issued by NWS Charleston, SC

Home | Current Version | Previous Version | Text Only | Print | Product List | Glossary On
Versions: 1 2 3 4 5 6 7 8 9 10 11 12 13 14 15 16 17 18 19 20 21 22 23 24 25 26 27
000
FTUS42 KCHS 201700 CCA
TAFSAV
TAF COR
KSAV 201744Z 2018/2118 29010G15KT P6SM SCT035 SCT060
      TEMPO 2018/2020 SCT035 BKN060
     FM202300 VRB04KT P6SM FEW080=

USA.gov is the U.S. government's official web portal to all federal, state and local government web resources and services.